createdAt,value
2019-02-05T00:01:53.024Z,0.50
2019-02-05T00:03:56.859Z,0.50
2019-02-05T00:06:00.501Z,0.50
2019-02-05T00:08:04.655Z,0.60
2019-02-05T00:10:09.793Z,0.60
2019-02-05T00:12:13.501Z,0.50
2019-02-05T00:14:17.204Z,0.60
2019-02-05T00:16:20.846Z,0.60
2019-02-05T00:18:24.493Z,0.70
2019-02-05T00:20:28.176Z,0.60
2019-02-05T00:22:31.902Z,0.60
2019-02-05T00:24:35.524Z,0.60
2019-02-05T00:26:39.248Z,0.60
2019-02-05T00:28:42.929Z,0.50
2019-02-05T00:30:46.622Z,0.50
2019-02-05T00:32:50.199Z,0.50
2019-02-05T00:34:53.896Z,0.50
2019-02-05T00:36:58.043Z,0.50
2019-02-05T00:39:01.770Z,0.50
2019-02-05T00:41:05.857Z,0.50
2019-02-05T00:43:09.570Z,0.50
2019-02-05T00:45:15.565Z,0.50
2019-02-05T00:47:19.187Z,0.50
2019-02-05T00:49:22.837Z,0.50
2019-02-05T00:51:26.602Z,0.50
2019-02-05T00:53:30.305Z,0.50
2019-02-05T00:55:34.040Z,0.50
2019-02-05T00:57:38.085Z,0.50
2019-02-05T00:59:41.813Z,0.50
2019-02-05T01:01:45.561Z,0.60
2019-02-05T01:03:49.301Z,0.60
2019-02-05T01:05:53.020Z,0.50
2019-02-05T01:07:57.185Z,0.50
2019-02-05T01:10:00.930Z,0.50
2019-02-05T01:12:04.710Z,0.40
2019-02-05T01:14:08.532Z,0.40
2019-02-05T01:16:12.263Z,0.40
2019-02-05T01:18:16.456Z,0.40
2019-02-05T01:20:21.451Z,0.30
2019-02-05T01:22:25.068Z,0.30
2019-02-05T01:24:28.715Z,0.30
2019-02-05T01:26:32.484Z,0.20
2019-02-05T01:28:36.307Z,0.20
2019-02-05T01:30:40.073Z,0.20
2019-02-05T01:32:43.824Z,0.10
2019-02-05T01:34:47.490Z,0.10
2019-02-05T01:36:51.266Z,0.10
2019-02-05T01:38:55.170Z,0.00
2019-02-05T01:40:58.843Z,0.00
2019-02-05T01:43:02.600Z,0.00
2019-02-05T01:45:09.433Z,-0.10
2019-02-05T01:47:13.312Z,-0.10
2019-02-05T01:49:17.039Z,-0.10
2019-02-05T01:51:20.784Z,-0.10
2019-02-05T01:53:24.700Z,-0.20
2019-02-05T01:55:28.776Z,-0.20
2019-02-05T01:57:32.546Z,-0.20
2019-02-05T01:59:37.918Z,-0.20
2019-02-05T02:01:43.247Z,-0.30
2019-02-05T02:03:46.910Z,-0.30
2019-02-05T02:05:50.732Z,-0.30
2019-02-05T02:07:54.526Z,-0.30
2019-02-05T02:09:58.284Z,-0.40
2019-02-05T02:12:02.012Z,-0.40
2019-02-05T02:14:05.861Z,-0.40
2019-02-05T02:16:09.629Z,-0.40
2019-02-05T02:18:13.342Z,-0.40
2019-02-05T02:20:18.772Z,-0.40
2019-02-05T02:22:23.721Z,-0.40
2019-02-05T02:24:27.540Z,-0.50
2019-02-05T02:26:31.250Z,-0.50
2019-02-05T02:28:34.949Z,-0.50
2019-02-05T02:30:40.837Z,-0.50
2019-02-05T02:32:44.422Z,-0.50
2019-02-05T02:34:48.208Z,-0.60
2019-02-05T02:36:52.469Z,-0.60
2019-02-05T02:38:58.070Z,-0.60
2019-02-05T02:41:01.565Z,-0.70
2019-02-05T02:43:05.308Z,-0.60
2019-02-05T02:45:12.243Z,-0.70
2019-02-05T02:47:15.906Z,-0.70
2019-02-05T02:49:19.695Z,-0.70
2019-02-05T02:51:23.373Z,-0.70
2019-02-05T02:53:27.043Z,-0.70
2019-02-05T02:55:30.714Z,-0.70
2019-02-05T02:57:34.458Z,-0.70
2019-02-05T02:59:38.292Z,-0.80
2019-02-05T03:01:41.883Z,-0.80
2019-02-05T03:03:45.533Z,-0.80
2019-02-05T03:05:49.322Z,-0.80
2019-02-05T03:07:53.050Z,-0.80
2019-02-05T03:09:56.794Z,-0.90
2019-02-05T03:12:01.010Z,-0.90
2019-02-05T03:14:05.219Z,-0.90
2019-02-05T03:16:08.919Z,-0.90
2019-02-05T03:18:12.644Z,-0.90
2019-02-05T03:20:17.304Z,-0.90
2019-02-05T03:22:21.031Z,-1.00
2019-02-05T03:24:24.700Z,-0.90
2019-02-05T03:26:28.445Z,-0.90
2019-02-05T03:28:32.120Z,-1.00
2019-02-05T03:30:36.355Z,-1.00
2019-02-05T03:32:40.063Z,-1.00
2019-02-05T03:34:43.902Z,-1.00
2019-02-05T03:36:47.546Z,-1.00
2019-02-05T03:38:51.353Z,-1.00
2019-02-05T03:41:00.356Z,-1.00
2019-02-05T03:43:04.107Z,-1.10
2019-02-05T03:45:08.203Z,-1.10
2019-02-05T03:47:12.020Z,-1.10
2019-02-05T03:49:15.784Z,-1.10
2019-02-05T03:51:28.425Z,-1.10
2019-02-05T03:53:47.056Z,-1.10
2019-02-05T03:55:53.755Z,-1.20
2019-02-05T03:58:06.362Z,-1.20
2019-02-05T04:00:13.025Z,-1.20
2019-02-05T04:02:53.413Z,-1.20
2019-02-05T04:05:24.148Z,-1.20
2019-02-05T04:07:33.954Z,-1.30
2019-02-05T04:09:40.630Z,-1.30
2019-02-05T04:12:14.877Z,-1.30
2019-02-05T04:14:32.905Z,-1.30
2019-02-05T04:16:45.305Z,-1.30
2019-02-05T04:18:52.032Z,-1.30
2019-02-05T04:21:04.564Z,-1.30
2019-02-05T04:23:20.043Z,-1.30
2019-02-05T04:25:43.200Z,-1.40
2019-02-05T04:28:12.248Z,-1.40
2019-02-05T04:30:27.988Z,-1.40
2019-02-05T04:32:44.012Z,-1.40
2019-02-05T04:35:16.028Z,-1.40
2019-02-05T04:37:25.666Z,-1.50
2019-02-05T04:39:47.453Z,-1.50
2019-02-05T04:42:12.441Z,-1.50
2019-02-05T04:44:24.933Z,-1.50
2019-02-05T04:46:49.901Z,-1.50
2019-02-05T04:49:22.361Z,-1.50
2019-02-05T04:51:41.083Z,-1.50
2019-02-05T04:53:59.870Z,-1.60
2019-02-05T04:56:26.246Z,-1.60
2019-02-05T04:58:51.226Z,-1.60
2019-02-05T05:01:14.297Z,-1.60
2019-02-05T05:03:26.505Z,-1.60
2019-02-05T05:05:36.075Z,-1.60
2019-02-05T05:07:51.553Z,-1.60
2019-02-05T05:09:57.186Z,-1.60
2019-02-05T05:12:01.251Z,-1.70
2019-02-05T05:14:05.678Z,-1.60
2019-02-05T05:16:09.426Z,-1.70
2019-02-05T05:18:15.508Z,-1.70
2019-02-05T05:20:18.891Z,-1.70
2019-02-05T05:22:23.073Z,-1.70
2019-02-05T05:24:27.325Z,-1.80
2019-02-05T05:26:31.117Z,-1.70
2019-02-05T05:28:34.984Z,-1.70
2019-02-05T05:30:39.161Z,-1.70
2019-02-05T05:32:42.896Z,-1.80
2019-02-05T05:34:48.785Z,-1.70
2019-02-05T05:36:51.381Z,-1.80
2019-02-05T05:38:55.061Z,-1.80
2019-02-05T05:40:58.660Z,-1.80
2019-02-05T05:43:02.348Z,-1.80
2019-02-05T05:45:09.124Z,-1.80
2019-02-05T05:47:12.809Z,-1.80
2019-02-05T05:49:16.630Z,-1.80
2019-02-05T05:51:20.549Z,-1.80
2019-02-05T05:53:24.231Z,-1.80
2019-02-05T05:55:27.896Z,-1.80
2019-02-05T05:57:31.631Z,-1.80
2019-02-05T05:59:35.262Z,-1.80
2019-02-05T06:01:39.249Z,-1.90
2019-02-05T06:03:42.881Z,-1.90
2019-02-05T06:05:46.657Z,-1.90
2019-02-05T06:07:50.252Z,-1.90
2019-02-05T06:09:54.063Z,-1.90
2019-02-05T06:11:57.954Z,-1.90
2019-02-05T06:14:01.724Z,-1.90
2019-02-05T06:16:05.547Z,-1.90
2019-02-05T06:18:09.345Z,-2.00
2019-02-05T06:20:18.415Z,-2.00
2019-02-05T06:22:22.210Z,-2.00
2019-02-05T06:24:26.085Z,-2.00
2019-02-05T06:26:29.826Z,-2.00
2019-02-05T06:28:34.889Z,-2.00
2019-02-05T06:30:38.902Z,-2.00
2019-02-05T06:32:42.735Z,-2.00
2019-02-05T06:34:46.526Z,-2.10
2019-02-05T06:36:50.367Z,-2.10
2019-02-05T06:38:54.106Z,-2.10
2019-02-05T06:41:00.125Z,-2.10
2019-02-05T06:43:03.822Z,-2.10
2019-02-05T06:45:10.831Z,-2.10
2019-02-05T06:47:14.732Z,-2.10
2019-02-05T06:49:18.707Z,-2.10
2019-02-05T06:51:22.778Z,-2.10
2019-02-05T06:53:26.658Z,-2.10
2019-02-05T06:55:30.581Z,-2.20
2019-02-05T06:57:34.523Z,-2.20
2019-02-05T06:59:38.627Z,-2.20
2019-02-05T07:01:43.000Z,-2.20
2019-02-05T07:03:46.882Z,-2.20
2019-02-05T07:05:50.870Z,-2.20
2019-02-05T07:07:54.737Z,-2.20
2019-02-05T07:09:58.720Z,-2.20
2019-02-05T07:12:03.221Z,-2.20
2019-02-05T07:14:07.361Z,-2.20
2019-02-05T07:16:11.252Z,-2.20
2019-02-05T07:18:15.501Z,-2.20
2019-02-05T07:20:20.088Z,-2.20
2019-02-05T07:22:23.913Z,-2.20
2019-02-05T07:24:27.906Z,-2.20
2019-02-05T07:26:31.709Z,-2.10
2019-02-05T07:28:35.577Z,-2.10
2019-02-05T07:30:39.524Z,-2.10
2019-02-05T07:32:43.427Z,-2.20
2019-02-05T07:34:47.325Z,-2.10
2019-02-05T07:36:52.223Z,-2.10
2019-02-05T07:38:56.148Z,-2.10
2019-02-05T07:41:00.548Z,-2.10
2019-02-05T07:43:05.110Z,-2.10
2019-02-05T07:45:12.237Z,-2.00
2019-02-05T07:47:16.208Z,-2.00
2019-02-05T07:49:20.168Z,-2.00
2019-02-05T07:51:24.464Z,-2.00
2019-02-05T07:53:28.862Z,-2.00
2019-02-05T07:55:33.076Z,-1.90
2019-02-05T07:57:37.208Z,-1.90
2019-02-05T07:59:41.421Z,-1.90
2019-02-05T08:01:45.372Z,-1.90
2019-02-05T08:03:49.335Z,-1.80
2019-02-05T08:05:53.271Z,-1.80
2019-02-05T08:07:58.499Z,-1.80
2019-02-05T08:10:02.848Z,-1.80
2019-02-05T08:12:07.177Z,-1.80
2019-02-05T08:14:11.417Z,-1.50
2019-02-05T08:16:15.704Z,-0.90
2019-02-05T08:18:20.141Z,-0.20
2019-02-05T08:20:24.142Z,0.50
2019-02-05T08:22:28.030Z,1.20
2019-02-05T08:24:31.860Z,1.70
2019-02-05T08:26:35.781Z,2.30
2019-02-05T08:28:41.261Z,2.80
2019-02-05T08:30:47.849Z,3.40
2019-02-05T08:32:52.196Z,4.10
2019-02-05T08:34:56.046Z,4.80
2019-02-05T08:36:59.950Z,5.40
2019-02-05T08:39:05.230Z,6.00
2019-02-05T08:41:09.084Z,6.50
2019-02-05T08:43:13.352Z,6.90
2019-02-05T08:45:20.574Z,7.50
2019-02-05T08:47:24.632Z,8.20
2019-02-05T08:49:30.163Z,8.60
2019-02-05T08:51:34.018Z,9.00
2019-02-05T08:53:37.942Z,9.30
2019-02-05T08:55:41.847Z,9.70
2019-02-05T08:57:46.189Z,10.10
2019-02-05T08:59:50.067Z,10.50
2019-02-05T09:01:53.907Z,11.00
2019-02-05T09:03:57.794Z,11.30
2019-02-05T09:06:01.779Z,11.70
2019-02-05T09:08:07.533Z,12.10
2019-02-05T09:10:14.356Z,12.40
2019-02-05T09:12:19.838Z,12.50
2019-02-05T09:14:23.782Z,12.80
2019-02-05T09:16:27.763Z,13.00
2019-02-05T09:18:32.105Z,13.10
2019-02-05T09:20:36.083Z,13.10
2019-02-05T09:22:40.002Z,13.00
2019-02-05T09:24:43.885Z,13.20
2019-02-05T09:26:47.881Z,13.30
2019-02-05T09:28:53.365Z,13.50
2019-02-05T09:30:57.215Z,13.60
2019-02-05T09:33:04.041Z,13.80
2019-02-05T09:35:09.099Z,14.00
2019-02-05T09:37:13.116Z,14.20
2019-02-05T09:39:17.181Z,14.30
2019-02-05T09:41:21.074Z,14.40
2019-02-05T09:43:24.894Z,14.60
2019-02-05T09:45:30.756Z,14.70
2019-02-05T09:47:34.625Z,14.60
2019-02-05T09:49:38.639Z,14.50
2019-02-05T09:51:42.523Z,14.50
2019-02-05T09:53:46.458Z,14.70
2019-02-05T09:55:50.221Z,14.80
2019-02-05T09:57:54.779Z,14.90
2019-02-05T09:59:58.696Z,15.10
2019-02-05T10:02:02.603Z,15.00
2019-02-05T10:04:06.506Z,15.10
2019-02-05T10:06:14.197Z,15.10
2019-02-05T10:08:20.938Z,15.20
2019-02-05T10:10:24.854Z,15.10
2019-02-05T10:12:29.212Z,15.30
2019-02-05T10:14:34.240Z,15.40
2019-02-05T10:16:42.199Z,15.50
2019-02-05T10:18:46.881Z,15.60
2019-02-05T10:20:51.111Z,15.60
2019-02-05T10:22:57.111Z,15.60
2019-02-05T10:25:00.914Z,15.50
2019-02-05T10:27:04.791Z,15.70
2019-02-05T10:29:09.238Z,15.50
2019-02-05T10:31:13.166Z,15.60
2019-02-05T10:33:17.136Z,15.60
2019-02-05T10:35:21.363Z,14.50
2019-02-05T10:37:25.276Z,13.80
2019-02-05T10:39:29.201Z,13.80
2019-02-05T10:41:33.052Z,13.80
2019-02-05T10:43:36.995Z,13.40
2019-02-05T10:45:40.906Z,13.30
2019-02-05T10:47:44.891Z,13.30
2019-02-05T10:49:48.722Z,13.50
2019-02-05T10:51:52.613Z,13.50
2019-02-05T10:53:58.014Z,13.40
2019-02-05T10:56:01.874Z,13.20
2019-02-05T10:58:06.256Z,13.10
2019-02-05T11:00:16.676Z,12.80
2019-02-05T11:02:20.582Z,13.10
2019-02-05T11:04:24.907Z,13.10
2019-02-05T11:06:29.426Z,12.60
2019-02-05T11:08:33.260Z,12.20
2019-02-05T11:10:37.357Z,11.90
2019-02-05T11:12:41.307Z,11.90
2019-02-05T11:14:46.418Z,12.00
2019-02-05T11:16:50.360Z,11.80
2019-02-05T11:18:54.602Z,11.20
2019-02-05T11:20:58.506Z,11.00
2019-02-05T11:23:02.666Z,11.00
2019-02-05T11:25:07.893Z,11.10
2019-02-05T11:27:12.937Z,11.10
2019-02-05T11:29:17.057Z,11.10
2019-02-05T11:31:21.010Z,10.60
2019-02-05T11:33:25.916Z,10.70
2019-02-05T11:35:31.596Z,11.00
2019-02-05T11:37:35.591Z,11.40
2019-02-05T11:39:39.473Z,11.70
2019-02-05T11:41:43.360Z,11.80
2019-02-05T11:43:47.266Z,12.00
2019-02-05T11:45:51.230Z,12.10
2019-02-05T11:47:55.304Z,12.30
2019-02-05T11:49:59.103Z,12.50
2019-02-05T11:52:03.001Z,12.60
2019-02-05T11:54:07.363Z,12.80
2019-02-05T11:56:11.281Z,13.10
2019-02-05T11:58:17.888Z,13.10
2019-02-05T12:00:32.659Z,12.70
2019-02-05T12:02:35.350Z,12.40
2019-02-05T12:04:39.204Z,12.10
2019-02-05T12:06:43.161Z,11.60
2019-02-05T12:08:49.727Z,11.10
2019-02-05T12:10:53.554Z,10.70
2019-02-05T12:12:58.596Z,10.60
2019-02-05T12:15:02.523Z,10.60
2019-02-05T12:17:06.373Z,10.70
2019-02-05T12:19:10.842Z,10.80
2019-02-05T12:21:14.994Z,11.10
2019-02-05T12:23:19.524Z,11.30
2019-02-05T12:25:26.353Z,11.60
2019-02-05T12:27:30.267Z,11.80
2019-02-05T12:29:35.786Z,11.90
2019-02-05T12:31:39.638Z,11.90
2019-02-05T12:33:43.575Z,11.90
2019-02-05T12:35:47.503Z,12.00
2019-02-05T12:37:51.380Z,12.00
2019-02-05T12:39:55.616Z,12.10
2019-02-05T12:41:59.574Z,12.20
2019-02-05T12:44:03.640Z,12.10
2019-02-05T12:46:07.542Z,12.00
2019-02-05T12:48:11.464Z,12.00
2019-02-05T12:50:24.231Z,11.90
2019-02-05T12:52:28.242Z,11.90
2019-02-05T12:54:32.117Z,11.80
2019-02-05T12:56:40.079Z,11.80
2019-02-05T12:58:44.057Z,11.80
2019-02-05T13:00:58.273Z,11.80
2019-02-05T13:02:55.199Z,11.80
2019-02-05T13:04:59.353Z,11.70
2019-02-05T13:07:03.233Z,11.70
2019-02-05T13:09:08.364Z,11.60
2019-02-05T13:11:12.215Z,11.40
2019-02-05T13:13:18.152Z,11.20
2019-02-05T13:15:21.580Z,11.10
2019-02-05T13:17:25.357Z,10.90
2019-02-05T13:19:29.324Z,10.70
2019-02-05T13:21:33.214Z,10.60
2019-02-05T13:23:38.719Z,10.50
2019-02-05T13:25:43.388Z,10.50
2019-02-05T13:27:47.366Z,10.40
2019-02-05T13:29:51.275Z,10.40
2019-02-05T13:31:55.158Z,10.20
2019-02-05T13:33:59.484Z,10.10
2019-02-05T13:36:04.176Z,10.00
2019-02-05T13:38:08.004Z,10.00
2019-02-05T13:40:22.808Z,10.10
2019-02-05T13:42:26.560Z,10.10
2019-02-05T13:44:30.273Z,10.20
2019-02-05T13:46:34.332Z,10.10
2019-02-05T13:48:38.125Z,10.10
2019-02-05T13:50:43.298Z,10.00
2019-02-05T13:52:47.102Z,9.90
2019-02-05T13:54:50.951Z,9.80
2019-02-05T13:56:54.994Z,9.70
2019-02-05T13:58:58.767Z,9.70
2019-02-05T14:01:05.101Z,9.60
2019-02-05T14:03:09.717Z,9.60
2019-02-05T14:05:13.524Z,9.60
2019-02-05T14:07:17.659Z,9.60
2019-02-05T14:09:21.487Z,9.60
2019-02-05T14:11:25.346Z,9.60
2019-02-05T14:13:30.891Z,9.50
2019-02-05T14:15:39.638Z,9.50
2019-02-05T14:17:43.557Z,9.50
2019-02-05T14:19:47.390Z,9.40
2019-02-05T14:21:51.153Z,9.40
2019-02-05T14:23:54.813Z,9.30
2019-02-05T14:25:59.710Z,9.20
2019-02-05T14:28:03.834Z,9.10
2019-02-05T14:30:16.214Z,9.00
2019-02-05T14:32:20.237Z,8.90
2019-02-05T14:34:24.386Z,8.80
2019-02-05T14:36:29.218Z,8.80
2019-02-05T14:38:33.902Z,8.80
2019-02-05T14:40:37.660Z,8.80
2019-02-05T14:42:41.580Z,8.80
2019-02-05T14:44:45.285Z,8.80
2019-02-05T14:46:49.631Z,8.80
2019-02-05T14:48:53.226Z,8.80
2019-02-05T14:50:56.977Z,8.70
2019-02-05T14:53:01.032Z,8.70
2019-02-05T14:55:07.830Z,8.60
2019-02-05T14:57:11.444Z,8.60
2019-02-05T14:59:15.304Z,8.60
2019-02-05T15:01:19.613Z,8.60
2019-02-05T15:03:23.723Z,8.50
2019-02-05T15:05:27.459Z,8.50
2019-02-05T15:07:31.176Z,8.50
2019-02-05T15:09:34.936Z,8.50
2019-02-05T15:11:39.193Z,8.50
2019-02-05T15:13:42.943Z,8.50
2019-02-05T15:15:48.324Z,8.50
2019-02-05T15:17:52.390Z,8.40
2019-02-05T15:19:56.173Z,8.40
2019-02-05T15:22:00.534Z,8.40
2019-02-05T15:24:06.310Z,8.40
2019-02-05T15:26:10.348Z,8.40
2019-02-05T15:28:15.481Z,8.30
2019-02-05T15:30:36.651Z,8.30
2019-02-05T15:32:50.494Z,8.20
2019-02-05T15:34:54.414Z,8.20
2019-02-05T15:36:58.571Z,8.10
2019-02-05T15:39:05.217Z,8.10
2019-02-05T15:41:09.156Z,8.10
2019-02-05T15:43:13.057Z,8.00
2019-02-05T15:45:17.263Z,8.00
2019-02-05T15:47:21.972Z,8.00
2019-02-05T15:49:27.256Z,7.90
2019-02-05T15:51:31.351Z,7.90
2019-02-05T15:53:37.291Z,7.80
2019-02-05T15:55:41.026Z,7.80
2019-02-05T15:57:44.775Z,7.70
2019-02-05T15:59:48.428Z,7.70
2019-02-05T16:01:52.276Z,7.70
2019-02-05T16:03:55.947Z,7.60
2019-02-05T16:05:59.675Z,7.50
2019-02-05T16:08:03.469Z,7.50
2019-02-05T16:10:10.154Z,7.50
2019-02-05T16:12:13.948Z,7.40
2019-02-05T16:14:18.681Z,7.40
2019-02-05T16:16:22.639Z,7.40
2019-02-05T16:18:26.400Z,7.30
2019-02-05T16:20:30.210Z,7.30
2019-02-05T16:22:34.059Z,7.20
2019-02-05T16:24:37.804Z,7.20
2019-02-05T16:26:41.624Z,7.20
2019-02-05T16:28:45.447Z,7.10
2019-02-05T16:30:49.190Z,7.10
2019-02-05T16:32:52.952Z,7.00
2019-02-05T16:34:56.500Z,6.90
2019-02-05T16:37:00.275Z,6.90
2019-02-05T16:39:07.348Z,6.90
2019-02-05T16:41:10.991Z,6.80
2019-02-05T16:43:14.683Z,6.70
2019-02-05T16:45:20.784Z,6.70
2019-02-05T16:47:24.538Z,6.70
2019-02-05T16:49:28.282Z,6.60
2019-02-05T16:51:32.237Z,6.60
2019-02-05T16:53:35.952Z,6.50
2019-02-05T16:55:39.730Z,6.50
2019-02-05T16:57:43.478Z,6.40
2019-02-05T16:59:47.450Z,6.40
2019-02-05T17:01:51.120Z,6.30
2019-02-05T17:03:54.865Z,6.30
2019-02-05T17:05:58.760Z,6.30
2019-02-05T17:08:02.963Z,6.30
2019-02-05T17:10:09.699Z,6.30
2019-02-05T17:12:13.430Z,6.20
2019-02-05T17:14:17.361Z,6.20
2019-02-05T17:16:21.005Z,6.20
2019-02-05T17:18:25.195Z,6.20
2019-02-05T17:20:33.177Z,6.20
2019-02-05T17:22:37.306Z,6.10
2019-02-05T17:24:41.120Z,6.10
2019-02-05T17:26:45.429Z,6.10
2019-02-05T17:28:49.124Z,6.10
2019-02-05T17:30:52.761Z,6.00
2019-02-05T17:32:56.482Z,6.00
2019-02-05T17:35:00.335Z,6.00
2019-02-05T17:37:04.071Z,5.90
2019-02-05T17:39:10.137Z,5.80
2019-02-05T17:41:13.931Z,5.70
2019-02-05T17:43:17.832Z,5.60
2019-02-05T17:45:27.652Z,5.50
2019-02-05T17:47:32.740Z,5.40
2019-02-05T17:49:36.431Z,5.40
2019-02-05T17:51:41.660Z,5.30
2019-02-05T17:53:45.861Z,5.20
2019-02-05T17:55:49.597Z,5.10
2019-02-05T17:57:53.326Z,5.00
2019-02-05T17:59:57.093Z,4.90
2019-02-05T18:02:00.737Z,4.80
2019-02-05T18:04:05.080Z,4.70
2019-02-05T18:06:08.924Z,4.70
2019-02-05T18:08:12.702Z,4.60
2019-02-05T18:10:22.559Z,4.60
2019-02-05T18:12:26.206Z,4.60
2019-02-05T18:14:29.908Z,4.50
2019-02-05T18:16:33.607Z,4.50
2019-02-05T18:18:37.438Z,4.40
2019-02-05T18:20:41.346Z,4.30
2019-02-05T18:22:45.111Z,4.20
2019-02-05T18:24:49.261Z,4.10
2019-02-05T18:26:52.885Z,4.00
2019-02-05T18:28:56.564Z,3.90
2019-02-05T18:31:01.349Z,3.80
2019-02-05T18:33:06.088Z,3.70
2019-02-05T18:35:10.961Z,3.70
2019-02-05T18:37:15.076Z,3.60
2019-02-05T18:39:18.810Z,3.60
2019-02-05T18:41:22.600Z,3.60
2019-02-05T18:43:26.300Z,3.60
2019-02-05T18:45:30.081Z,3.50
2019-02-05T18:47:33.767Z,3.50
2019-02-05T18:49:37.731Z,3.40
2019-02-05T18:51:41.535Z,3.40
2019-02-05T18:53:46.092Z,3.30
2019-02-05T18:55:50.210Z,3.30
2019-02-05T18:57:54.616Z,3.20
2019-02-05T18:59:58.535Z,3.20
2019-02-05T19:02:02.749Z,3.20
2019-02-05T19:04:06.796Z,3.10
2019-02-05T19:06:10.873Z,3.10
2019-02-05T19:08:16.524Z,3.10
2019-02-05T19:10:28.862Z,3.10
2019-02-05T19:12:32.948Z,3.00
2019-02-05T19:14:37.284Z,3.00
2019-02-05T19:16:41.288Z,2.90
2019-02-05T19:18:45.572Z,2.90
2019-02-05T19:20:49.525Z,2.90
2019-02-05T19:22:53.312Z,2.80
2019-02-05T19:25:02.158Z,2.70
2019-02-05T19:27:06.193Z,2.70
2019-02-05T19:29:18.411Z,2.60
2019-02-05T19:31:17.069Z,2.60
2019-02-05T19:33:27.304Z,2.50
2019-02-05T19:35:27.749Z,2.50
2019-02-05T19:37:31.503Z,2.40
2019-02-05T19:39:35.943Z,2.40
2019-02-05T19:41:39.648Z,2.30
2019-02-05T19:43:43.366Z,2.30
2019-02-05T19:45:51.473Z,2.20
2019-02-05T19:47:55.674Z,2.20
2019-02-05T19:49:59.366Z,2.10
2019-02-05T19:52:04.486Z,2.00
2019-02-05T19:54:08.253Z,2.00
2019-02-05T19:56:14.550Z,1.90
2019-02-05T19:58:20.257Z,1.90
2019-02-05T20:00:25.588Z,1.90
2019-02-05T20:02:30.963Z,1.80
2019-02-05T20:04:36.246Z,1.80
2019-02-05T20:06:42.224Z,1.80
2019-02-05T20:08:51.221Z,1.70
2019-02-05T20:10:56.412Z,1.70
2019-02-05T20:13:01.250Z,1.70
2019-02-05T20:15:11.867Z,1.70
2019-02-05T20:17:16.838Z,1.60
2019-02-05T20:19:24.480Z,1.60
2019-02-05T20:21:26.809Z,1.60
2019-02-05T20:23:30.571Z,1.60
2019-02-05T20:25:34.313Z,1.60
2019-02-05T20:27:38.051Z,1.50
2019-02-05T20:29:41.703Z,1.60
2019-02-05T20:31:45.438Z,1.50
2019-02-05T20:33:50.267Z,1.50
2019-02-05T20:35:53.949Z,1.50
2019-02-05T20:37:57.705Z,1.40
2019-02-05T20:40:01.472Z,1.40
2019-02-05T20:42:05.499Z,1.40
2019-02-05T20:44:09.178Z,1.40
2019-02-05T20:46:13.250Z,1.30
2019-02-05T20:48:17.003Z,1.30
2019-02-05T20:50:21.348Z,1.30
2019-02-05T20:52:25.148Z,1.20
2019-02-05T20:54:28.882Z,1.20
2019-02-05T20:56:32.540Z,1.10
2019-02-05T20:58:36.262Z,1.10
2019-02-05T21:00:40.130Z,1.10
2019-02-05T21:02:43.930Z,1.00
2019-02-05T21:04:48.689Z,1.00
2019-02-05T21:06:52.480Z,1.00
2019-02-05T21:08:57.455Z,0.90
2019-02-05T21:11:01.621Z,0.90
2019-02-05T21:13:05.348Z,0.90
2019-02-05T21:15:12.467Z,0.80
2019-02-05T21:17:19.417Z,0.80
2019-02-05T21:19:23.281Z,0.80
2019-02-05T21:21:27.236Z,0.70
2019-02-05T21:23:31.094Z,0.70
2019-02-05T21:25:35.044Z,0.70
2019-02-05T21:27:41.796Z,0.70
2019-02-05T21:29:44.255Z,0.70
2019-02-05T21:31:50.181Z,0.70
2019-02-05T21:33:54.072Z,0.60
2019-02-05T21:35:57.725Z,0.60
2019-02-05T21:38:01.689Z,0.60
2019-02-05T21:40:15.620Z,0.60
2019-02-05T21:42:19.380Z,0.60
2019-02-05T21:44:23.200Z,0.60
2019-02-05T21:46:26.851Z,0.60
2019-02-05T21:48:30.567Z,0.50
2019-02-05T21:50:34.286Z,0.50
2019-02-05T21:52:38.146Z,0.50
2019-02-05T21:54:41.993Z,0.40
2019-02-05T21:56:45.621Z,0.40
2019-02-05T21:58:51.141Z,0.30
2019-02-05T22:00:54.755Z,0.30
2019-02-05T22:02:59.093Z,0.30
2019-02-05T22:05:02.999Z,0.30
2019-02-05T22:07:06.777Z,0.30
2019-02-05T22:09:12.300Z,0.30
2019-02-05T22:11:16.201Z,0.20
2019-02-05T22:13:19.862Z,0.20
2019-02-05T22:15:23.696Z,0.20
2019-02-05T22:17:27.497Z,0.20
2019-02-05T22:19:31.196Z,0.20
2019-02-05T22:21:34.856Z,0.20
2019-02-05T22:23:38.651Z,0.10
2019-02-05T22:25:42.533Z,0.10
2019-02-05T22:27:46.291Z,0.10
2019-02-05T22:29:50.067Z,0.10
2019-02-05T22:31:53.792Z,0.00
2019-02-05T22:34:00.921Z,0.00
2019-02-05T22:36:05.139Z,0.00
2019-02-05T22:38:09.044Z,0.00
2019-02-05T22:40:16.876Z,0.00
2019-02-05T22:42:20.618Z,-0.10
2019-02-05T22:44:24.390Z,-0.10
2019-02-05T22:46:30.096Z,-0.10
2019-02-05T22:48:34.174Z,-0.10
2019-02-05T22:50:38.585Z,-0.20
2019-02-05T22:52:42.446Z,-0.20
2019-02-05T22:54:47.891Z,-0.20
2019-02-05T22:56:54.577Z,-0.20
2019-02-05T22:58:58.616Z,-0.20
2019-02-05T23:01:08.228Z,-0.30
2019-02-05T23:03:12.013Z,-0.30
2019-02-05T23:05:27.921Z,-0.20
2019-02-05T23:07:33.158Z,-0.30
2019-02-05T23:09:39.805Z,-0.30
2019-02-05T23:11:49.210Z,-0.30
2019-02-05T23:13:53.027Z,-0.40
2019-02-05T23:15:56.773Z,-0.40
2019-02-05T23:18:00.638Z,-0.40
2019-02-05T23:20:07.861Z,-0.50
2019-02-05T23:22:11.689Z,-0.50
2019-02-05T23:24:15.278Z,-0.50
2019-02-05T23:26:19.049Z,-0.50
2019-02-05T23:28:22.757Z,-0.50
2019-02-05T23:30:27.554Z,-0.50
2019-02-05T23:32:31.392Z,-0.50
2019-02-05T23:34:35.147Z,-0.50
2019-02-05T23:36:38.972Z,-0.50
2019-02-05T23:38:43.035Z,-0.50
2019-02-05T23:40:47.187Z,-0.50
2019-02-05T23:42:50.955Z,-0.60
2019-02-05T23:44:54.826Z,-0.60
2019-02-05T23:46:58.564Z,-0.60
2019-02-05T23:49:02.276Z,-0.60
2019-02-05T23:51:06.380Z,-0.60
2019-02-05T23:53:10.449Z,-0.60
2019-02-05T23:55:14.874Z,-0.60
2019-02-05T23:57:18.726Z,-0.60
2019-02-05T23:59:22.458Z,-0.60
